createdAt,value
2018-12-26T00:00:33.845Z,18.90
2018-12-26T00:03:04.865Z,18.90
2018-12-26T00:05:35.267Z,18.90
2018-12-26T00:08:06.177Z,18.90
2018-12-26T00:10:36.637Z,18.90
2018-12-26T00:13:07.849Z,18.90
2018-12-26T00:15:38.277Z,18.80
2018-12-26T00:18:09.531Z,18.80
2018-12-26T00:20:39.963Z,18.90
2018-12-26T00:23:11.178Z,18.80
2018-12-26T00:25:41.637Z,18.80
2018-12-26T00:28:12.330Z,18.80
2018-12-26T00:30:42.778Z,18.80
2018-12-26T00:33:13.935Z,18.80
2018-12-26T00:35:44.362Z,18.80
2018-12-26T00:38:15.049Z,18.80
2018-12-26T00:40:46.442Z,18.80
2018-12-26T00:43:18.044Z,18.80
2018-12-26T00:45:49.474Z,18.80
2018-12-26T00:48:20.798Z,18.80
2018-12-26T00:50:51.937Z,18.80
2018-12-26T00:53:23.082Z,18.80
2018-12-26T00:55:54.519Z,18.80
2018-12-26T00:58:25.271Z,18.80
2018-12-26T01:00:56.511Z,18.80
2018-12-26T01:03:27.441Z,18.80
2018-12-26T01:05:58.843Z,18.80
2018-12-26T01:08:30.249Z,18.80
2018-12-26T01:11:02.721Z,18.80
2018-12-26T01:13:33.354Z,18.80
2018-12-26T01:16:04.297Z,18.80
2018-12-26T01:18:34.721Z,18.80
2018-12-26T01:21:05.966Z,18.70
2018-12-26T01:23:36.403Z,18.80
2018-12-26T01:26:07.333Z,18.80
2018-12-26T01:28:37.776Z,18.70
2018-12-26T01:31:08.469Z,18.70
2018-12-26T01:33:38.821Z,18.70
2018-12-26T01:36:09.625Z,18.70
2018-12-26T01:38:40.288Z,18.70
2018-12-26T01:41:11.126Z,18.70
2018-12-26T01:43:42.267Z,18.70
2018-12-26T01:46:13.466Z,18.70
2018-12-26T01:48:44.861Z,18.70
2018-12-26T01:51:17.459Z,18.70
2018-12-26T01:53:48.847Z,18.70
2018-12-26T01:56:27.714Z,18.70
2018-12-26T01:58:52.814Z,18.70
2018-12-26T02:01:23.957Z,18.70
2018-12-26T02:03:55.406Z,18.70
2018-12-26T02:06:26.545Z,18.70
2018-12-26T02:08:58.130Z,18.70
2018-12-26T02:11:29.140Z,18.70
2018-12-26T02:14:00.290Z,18.70
2018-12-26T02:16:31.515Z,18.70
2018-12-26T02:19:02.566Z,18.70
2018-12-26T02:21:33.454Z,18.70
2018-12-26T02:24:04.867Z,18.70
2018-12-26T02:26:36.465Z,18.70
2018-12-26T02:29:08.377Z,18.70
2018-12-26T02:31:40.147Z,18.70
2018-12-26T02:34:11.308Z,18.70
2018-12-26T02:36:43.043Z,18.70
2018-12-26T02:39:14.607Z,18.70
2018-12-26T02:41:45.334Z,18.70
2018-12-26T02:44:16.475Z,18.60
2018-12-26T02:46:47.654Z,18.60
2018-12-26T02:49:18.751Z,18.60
2018-12-26T02:51:49.662Z,18.60
2018-12-26T02:54:20.739Z,18.60
2018-12-26T02:56:51.798Z,18.60
2018-12-26T02:59:22.732Z,18.60
2018-12-26T03:01:54.121Z,18.60
2018-12-26T03:04:25.322Z,18.60
2018-12-26T03:06:57.070Z,18.60
2018-12-26T03:09:28.521Z,18.60
2018-12-26T03:11:59.780Z,18.60
2018-12-26T03:14:31.429Z,18.60
2018-12-26T03:17:02.877Z,18.60
2018-12-26T03:19:34.023Z,18.60
2018-12-26T03:22:05.507Z,18.60
2018-12-26T03:24:36.960Z,18.60
2018-12-26T03:27:08.344Z,18.60
2018-12-26T03:29:39.587Z,18.60
2018-12-26T03:32:11.005Z,18.60
2018-12-26T03:34:42.456Z,18.60
2018-12-26T03:37:14.185Z,18.60
2018-12-26T03:39:45.384Z,18.60
2018-12-26T03:42:16.802Z,18.60
2018-12-26T03:44:50.019Z,18.60
2018-12-26T03:47:21.605Z,18.50
2018-12-26T03:49:52.684Z,18.50
2018-12-26T03:52:24.450Z,18.50
2018-12-26T03:54:56.227Z,18.50
2018-12-26T03:57:27.703Z,18.50
2018-12-26T03:59:58.810Z,18.50
2018-12-26T04:02:30.292Z,18.50
2018-12-26T04:05:01.704Z,18.50
2018-12-26T04:07:32.819Z,18.50
2018-12-26T04:10:04.301Z,18.50
2018-12-26T04:12:35.867Z,18.50
2018-12-26T04:15:06.899Z,18.50
2018-12-26T04:17:38.151Z,18.50
2018-12-26T04:20:09.796Z,18.50
2018-12-26T04:22:40.744Z,18.50
2018-12-26T04:25:12.084Z,18.50
2018-12-26T04:27:43.586Z,18.50
2018-12-26T04:30:14.987Z,18.50
2018-12-26T04:32:46.742Z,18.50
2018-12-26T04:35:17.888Z,18.50
2018-12-26T04:37:49.441Z,18.50
2018-12-26T04:40:20.856Z,18.50
2018-12-26T04:42:52.240Z,18.50
2018-12-26T04:45:23.570Z,18.50
2018-12-26T04:47:55.134Z,18.40
2018-12-26T04:50:26.467Z,18.50
2018-12-26T04:52:58.049Z,18.40
2018-12-26T04:55:29.190Z,18.50
2018-12-26T04:58:00.934Z,18.40
2018-12-26T05:00:32.408Z,18.40
2018-12-26T05:03:03.539Z,18.50
2018-12-26T05:05:34.626Z,18.40
2018-12-26T05:08:05.829Z,18.40
2018-12-26T05:10:37.275Z,18.40
2018-12-26T05:13:08.731Z,18.40
2018-12-26T05:15:39.873Z,18.40
2018-12-26T05:18:11.560Z,18.40
2018-12-26T05:20:42.776Z,18.40
2018-12-26T05:23:14.306Z,18.40
2018-12-26T05:25:45.965Z,18.40
2018-12-26T05:28:17.432Z,18.40
2018-12-26T05:30:48.878Z,18.40
2018-12-26T05:33:20.359Z,18.40
2018-12-26T05:35:51.968Z,18.40
2018-12-26T05:38:23.035Z,18.40
2018-12-26T05:40:54.202Z,18.40
2018-12-26T05:43:25.539Z,18.40
2018-12-26T05:45:57.280Z,18.40
2018-12-26T05:48:28.728Z,18.40
2018-12-26T05:51:00.186Z,18.40
2018-12-26T05:53:31.931Z,18.40
2018-12-26T05:56:03.077Z,18.40
2018-12-26T05:58:34.234Z,18.40
2018-12-26T06:01:05.727Z,18.40
2018-12-26T06:03:40.423Z,18.40
2018-12-26T06:06:14.516Z,18.40
2018-12-26T06:08:45.572Z,18.40
2018-12-26T06:11:17.008Z,18.40
2018-12-26T06:13:51.504Z,18.40
2018-12-26T06:16:23.115Z,18.40
2018-12-26T06:18:57.599Z,18.40
2018-12-26T06:21:28.945Z,18.40
2018-12-26T06:23:59.914Z,18.40
2018-12-26T06:26:31.552Z,18.40
2018-12-26T06:29:03.311Z,18.40
2018-12-26T06:31:34.760Z,18.40
2018-12-26T06:34:05.908Z,18.40
2018-12-26T06:36:37.359Z,18.40
2018-12-26T06:39:09.112Z,18.40
2018-12-26T06:41:40.557Z,18.40
2018-12-26T06:44:12.016Z,18.40
2018-12-26T06:46:43.163Z,18.40
2018-12-26T06:49:14.339Z,18.40
2018-12-26T06:51:45.144Z,18.50
2018-12-26T06:54:16.594Z,18.50
2018-12-26T06:56:48.041Z,18.50
2018-12-26T06:59:19.483Z,18.50
2018-12-26T07:01:50.935Z,18.50
2018-12-26T07:04:22.699Z,18.50
2018-12-26T07:06:54.085Z,18.50
2018-12-26T07:09:24.962Z,18.50
2018-12-26T07:11:55.866Z,18.50
2018-12-26T07:14:27.065Z,18.50
2018-12-26T07:16:58.382Z,18.60
2018-12-26T07:19:29.674Z,18.60
2018-12-26T07:22:00.676Z,18.60
2018-12-26T07:24:32.377Z,18.60
2018-12-26T07:27:03.583Z,18.60
2018-12-26T07:29:34.718Z,18.60
2018-12-26T07:32:07.398Z,18.60
2018-12-26T07:34:42.240Z,18.70
2018-12-26T07:37:11.833Z,18.60
2018-12-26T07:39:43.007Z,18.70
2018-12-26T07:42:14.429Z,18.70
2018-12-26T07:44:45.537Z,18.70
2018-12-26T07:47:16.828Z,18.70
2018-12-26T07:49:48.473Z,18.70
2018-12-26T07:52:19.825Z,18.70
2018-12-26T07:54:51.066Z,18.70
2018-12-26T07:57:22.793Z,18.70
2018-12-26T07:59:54.278Z,18.70
2018-12-26T08:02:25.730Z,18.80
2018-12-26T08:04:56.870Z,18.70
2018-12-26T08:07:28.014Z,18.80
2018-12-26T08:09:58.970Z,18.80
2018-12-26T08:12:30.851Z,18.80
2018-12-26T08:15:10.196Z,18.80
2018-12-26T08:17:35.106Z,18.80
2018-12-26T08:20:08.013Z,18.80
2018-12-26T08:22:39.485Z,18.80
2018-12-26T08:25:11.241Z,18.80
2018-12-26T08:27:42.169Z,18.80
2018-12-26T08:30:13.241Z,18.80
2018-12-26T08:32:44.058Z,18.80
2018-12-26T08:35:15.525Z,18.80
2018-12-26T08:37:46.335Z,18.80
2018-12-26T08:40:17.262Z,18.90
2018-12-26T08:42:48.329Z,18.90
2018-12-26T08:45:19.474Z,18.90
2018-12-26T08:47:51.053Z,18.90
2018-12-26T08:50:22.710Z,18.90
2018-12-26T08:52:53.822Z,18.90
2018-12-26T08:55:25.280Z,18.90
2018-12-26T08:57:56.456Z,18.90
2018-12-26T09:00:27.562Z,18.90
2018-12-26T09:02:58.722Z,18.90
2018-12-26T09:05:29.927Z,18.90
2018-12-26T09:08:01.298Z,18.80
2018-12-26T09:10:32.444Z,18.90
2018-12-26T09:13:03.520Z,18.90
2018-12-26T09:15:34.485Z,18.90
2018-12-26T09:18:06.192Z,18.90
2018-12-26T09:20:37.523Z,18.90
2018-12-26T09:23:09.519Z,18.90
2018-12-26T09:25:42.586Z,18.90
2018-12-26T09:28:13.537Z,18.90
2018-12-26T09:30:44.217Z,18.90
2018-12-26T09:33:14.886Z,18.90
2018-12-26T09:35:45.581Z,18.90
2018-12-26T09:38:16.257Z,18.90
2018-12-26T09:40:46.955Z,18.90
2018-12-26T09:43:18.243Z,18.90
2018-12-26T09:45:48.626Z,18.90
2018-12-26T09:48:19.525Z,18.90
2018-12-26T09:50:49.990Z,18.90
2018-12-26T09:53:20.959Z,18.90
2018-12-26T09:55:51.373Z,19.00
2018-12-26T09:58:22.336Z,19.00
2018-12-26T10:00:52.725Z,18.90
2018-12-26T10:03:24.002Z,19.00
2018-12-26T10:05:54.398Z,18.90
2018-12-26T10:08:25.680Z,18.90
2018-12-26T10:10:56.063Z,19.00
2018-12-26T10:13:27.350Z,19.00
2018-12-26T10:15:58.053Z,19.00
2018-12-26T10:18:29.013Z,19.00
2018-12-26T10:20:59.410Z,19.00
2018-12-26T10:23:31.930Z,19.00
2018-12-26T10:26:02.349Z,19.00
2018-12-26T10:28:33.612Z,19.00
2018-12-26T10:31:03.997Z,19.00
2018-12-26T10:33:35.282Z,19.00
2018-12-26T10:36:05.663Z,19.00
2018-12-26T10:38:36.463Z,19.00
2018-12-26T10:41:07.033Z,19.00
2018-12-26T10:43:39.233Z,19.00
2018-12-26T10:46:09.626Z,19.00
2018-12-26T10:48:40.901Z,19.00
2018-12-26T10:51:11.289Z,19.00
2018-12-26T10:53:42.342Z,19.00
2018-12-26T10:56:12.659Z,19.00
2018-12-26T10:58:43.941Z,19.00
2018-12-26T11:01:14.326Z,19.00
2018-12-26T11:03:45.614Z,19.00
2018-12-26T11:06:16.018Z,19.00
2018-12-26T11:08:47.031Z,19.00
2018-12-26T11:11:17.382Z,19.00
2018-12-26T11:13:48.103Z,19.10
2018-12-26T11:16:18.423Z,19.10
2018-12-26T11:18:50.065Z,19.10
2018-12-26T11:21:20.434Z,19.10
2018-12-26T11:23:51.075Z,19.10
2018-12-26T11:26:21.484Z,19.10
2018-12-26T11:28:52.398Z,19.10
2018-12-26T11:31:22.977Z,19.20
2018-12-26T11:33:53.767Z,19.20
2018-12-26T11:36:24.352Z,19.20
2018-12-26T11:38:55.703Z,19.20
2018-12-26T11:41:26.319Z,19.20
2018-12-26T11:43:57.227Z,19.20
2018-12-26T11:46:33.674Z,19.20
2018-12-26T11:49:05.823Z,19.20
2018-12-26T11:51:37.192Z,19.20
2018-12-26T11:54:08.899Z,19.20
2018-12-26T11:56:39.899Z,19.20
2018-12-26T11:59:10.896Z,19.20
2018-12-26T12:01:45.352Z,19.30
2018-12-26T12:04:16.792Z,19.30
2018-12-26T12:06:49.095Z,19.40
2018-12-26T12:09:20.275Z,19.40
2018-12-26T12:11:51.354Z,19.40
2018-12-26T12:14:22.259Z,19.40
2018-12-26T12:16:53.926Z,19.40
2018-12-26T12:19:25.850Z,19.40
2018-12-26T12:21:57.131Z,19.40
2018-12-26T12:24:28.991Z,19.40
2018-12-26T12:27:00.239Z,19.50
2018-12-26T12:29:35.929Z,19.50
2018-12-26T12:32:04.953Z,19.50
2018-12-26T12:34:36.255Z,19.50
2018-12-26T12:37:07.627Z,19.60
2018-12-26T12:39:38.923Z,19.60
2018-12-26T12:42:10.110Z,19.60
2018-12-26T12:44:41.292Z,19.60
2018-12-26T12:47:12.944Z,19.60
2018-12-26T12:49:44.153Z,19.60
2018-12-26T12:52:15.258Z,19.60
2018-12-26T12:54:46.391Z,19.60
2018-12-26T12:57:17.570Z,19.60
2018-12-26T12:59:48.918Z,19.60
2018-12-26T13:02:20.341Z,19.60
2018-12-26T13:04:51.881Z,19.60
2018-12-26T13:07:22.769Z,19.60
2018-12-26T13:09:53.870Z,19.60
2018-12-26T13:12:29.635Z,19.60
2018-12-26T13:15:01.171Z,19.60
2018-12-26T13:17:32.652Z,19.70
2018-12-26T13:20:04.966Z,19.70
2018-12-26T13:22:36.444Z,19.70
2018-12-26T13:25:07.899Z,19.70
2018-12-26T13:27:39.362Z,19.70
2018-12-26T13:30:10.933Z,19.70
2018-12-26T13:32:42.158Z,19.70
2018-12-26T13:35:13.594Z,19.70
2018-12-26T13:37:45.098Z,19.70
2018-12-26T13:40:16.615Z,19.70
2018-12-26T13:42:49.413Z,19.60
2018-12-26T13:45:20.566Z,19.60
2018-12-26T13:47:51.341Z,19.60
2018-12-26T13:50:22.627Z,19.60
2018-12-26T13:52:53.950Z,19.60
2018-12-26T13:55:25.260Z,19.60
2018-12-26T13:57:56.563Z,19.60
2018-12-26T14:00:28.030Z,19.60
2018-12-26T14:02:59.177Z,19.50
2018-12-26T14:05:30.898Z,19.50
2018-12-26T14:08:02.378Z,19.50
2018-12-26T14:10:33.426Z,19.50
2018-12-26T14:13:04.351Z,19.50
2018-12-26T14:15:35.595Z,19.50
2018-12-26T14:18:06.622Z,19.50
2018-12-26T14:20:37.770Z,19.50
2018-12-26T14:23:08.844Z,19.40
2018-12-26T14:25:40.362Z,19.40
2018-12-26T14:28:11.574Z,19.40
2018-12-26T14:30:42.650Z,19.40
2018-12-26T14:33:14.102Z,19.40
2018-12-26T14:35:52.104Z,19.40
2018-12-26T14:38:22.867Z,19.40
2018-12-26T14:40:53.274Z,19.40
2018-12-26T14:43:24.224Z,19.40
2018-12-26T14:45:54.798Z,19.40
2018-12-26T14:48:25.907Z,19.30
2018-12-26T14:50:56.323Z,19.30
2018-12-26T14:53:27.288Z,19.30
2018-12-26T14:55:57.702Z,19.30
2018-12-26T14:58:28.525Z,19.30
2018-12-26T15:00:59.023Z,19.30
2018-12-26T15:03:30.002Z,19.30
2018-12-26T15:06:00.425Z,19.30
2018-12-26T15:08:31.955Z,19.30
2018-12-26T15:11:04.541Z,19.30
2018-12-26T15:13:35.166Z,19.30
2018-12-26T15:16:06.107Z,19.30
2018-12-26T15:18:36.838Z,19.30
2018-12-26T15:21:07.289Z,19.30
2018-12-26T15:23:38.194Z,19.30
2018-12-26T15:26:08.640Z,19.20
2018-12-26T15:28:39.561Z,19.20
2018-12-26T15:31:09.996Z,19.20
2018-12-26T15:33:40.670Z,19.20
2018-12-26T15:36:11.377Z,19.20
2018-12-26T15:38:42.070Z,19.20
2018-12-26T15:41:12.424Z,19.20
2018-12-26T15:43:43.357Z,19.20
2018-12-26T15:46:13.781Z,19.20
2018-12-26T15:48:45.021Z,19.20
2018-12-26T15:51:16.368Z,19.20
2018-12-26T15:53:48.543Z,19.20
2018-12-26T15:56:19.768Z,19.20
2018-12-26T15:58:53.063Z,19.20
2018-12-26T16:01:24.122Z,19.20
2018-12-26T16:03:55.322Z,19.20
2018-12-26T16:06:26.482Z,19.20
2018-12-26T16:08:57.357Z,19.10
2018-12-26T16:11:28.394Z,19.10
2018-12-26T16:13:59.725Z,19.10
2018-12-26T16:16:30.742Z,19.10
2018-12-26T16:19:01.835Z,19.10
2018-12-26T16:21:33.266Z,19.10
2018-12-26T16:24:04.113Z,19.10
2018-12-26T16:26:35.562Z,19.10
2018-12-26T16:29:07.011Z,19.10
2018-12-26T16:31:38.154Z,19.10
2018-12-26T16:34:09.314Z,19.10
2018-12-26T16:36:40.745Z,19.10
2018-12-26T16:39:11.908Z,19.10
2018-12-26T16:41:43.344Z,19.10
2018-12-26T16:44:14.486Z,19.10
2018-12-26T16:46:46.170Z,19.10
2018-12-26T16:49:17.422Z,19.00
2018-12-26T16:51:48.531Z,19.00
2018-12-26T16:54:19.968Z,19.00
2018-12-26T16:56:51.106Z,19.00
2018-12-26T16:59:23.694Z,19.00
2018-12-26T17:01:55.456Z,19.00
2018-12-26T17:04:30.236Z,19.00
2018-12-26T17:07:05.610Z,19.00
2018-12-26T17:09:37.805Z,18.90
2018-12-26T17:12:14.060Z,18.90
2018-12-26T17:14:48.357Z,18.90
2018-12-26T17:17:19.522Z,18.90
2018-12-26T17:19:53.788Z,18.90
2018-12-26T17:22:26.020Z,18.90
2018-12-26T17:24:59.944Z,18.90
2018-12-26T17:27:35.290Z,18.90
2018-12-26T17:30:09.727Z,18.80
2018-12-26T17:32:41.935Z,18.80
2018-12-26T17:35:13.473Z,18.80
2018-12-26T17:37:44.619Z,18.80
2018-12-26T17:40:15.945Z,18.80
2018-12-26T17:42:47.711Z,18.80
2018-12-26T17:45:24.637Z,18.80
2018-12-26T17:47:56.052Z,18.90
2018-12-26T17:50:55.992Z,19.00
2018-12-26T17:54:04.502Z,19.30
2018-12-26T17:56:49.365Z,19.70
2018-12-26T17:59:25.741Z,20.10
2018-12-26T18:02:04.885Z,20.40
2018-12-26T18:04:36.066Z,20.70
2018-12-26T18:07:12.626Z,21.00
2018-12-26T18:09:46.318Z,21.30
2018-12-26T18:12:17.181Z,21.60
2018-12-26T18:14:53.355Z,21.80
2018-12-26T18:17:26.496Z,22.00
2018-12-26T18:19:57.667Z,22.20
2018-12-26T18:22:29.398Z,22.40
2018-12-26T18:25:00.756Z,22.60
2018-12-26T18:27:32.339Z,22.80
2018-12-26T18:30:03.767Z,22.90
2018-12-26T18:32:35.484Z,23.10
2018-12-26T18:35:07.919Z,23.20
2018-12-26T18:37:43.826Z,23.00
2018-12-26T18:40:16.588Z,22.90
2018-12-26T18:42:48.690Z,22.60
2018-12-26T18:45:20.077Z,22.40
2018-12-26T18:47:52.241Z,22.10
2018-12-26T18:50:28.746Z,21.90
2018-12-26T18:53:01.668Z,21.70
2018-12-26T18:55:33.007Z,21.40
2018-12-26T18:58:04.392Z,21.20
2018-12-26T19:00:36.104Z,21.00
2018-12-26T19:03:07.710Z,20.80
2018-12-26T19:05:39.820Z,20.70
2018-12-26T19:08:12.573Z,20.50
2018-12-26T19:11:09.849Z,20.40
2018-12-26T19:13:43.090Z,20.40
2018-12-26T19:16:15.761Z,20.30
2018-12-26T19:18:48.738Z,20.30
2018-12-26T19:21:20.112Z,20.30
2018-12-26T19:23:52.877Z,20.20
2018-12-26T19:26:24.564Z,20.20
2018-12-26T19:28:56.475Z,20.10
2018-12-26T19:31:28.979Z,20.10
2018-12-26T19:33:59.663Z,20.10
2018-12-26T19:36:31.806Z,20.10
2018-12-26T19:39:02.718Z,20.10
2018-12-26T19:41:34.176Z,20.00
2018-12-26T19:44:04.977Z,20.00
2018-12-26T19:46:36.226Z,20.00
2018-12-26T19:49:08.765Z,20.00
2018-12-26T19:51:40.264Z,20.00
2018-12-26T19:54:11.519Z,20.00
2018-12-26T19:56:43.369Z,20.00
2018-12-26T19:59:15.907Z,19.90
2018-12-26T20:01:48.316Z,19.90
2018-12-26T20:04:19.430Z,19.90
2018-12-26T20:06:50.802Z,19.90
2018-12-26T20:09:21.487Z,19.90
2018-12-26T20:11:52.506Z,19.90
2018-12-26T20:14:25.875Z,19.90
2018-12-26T20:16:56.960Z,19.90
2018-12-26T20:19:27.411Z,19.90
2018-12-26T20:21:58.764Z,19.90
2018-12-26T20:24:30.396Z,19.90
2018-12-26T20:27:01.584Z,19.80
2018-12-26T20:29:34.458Z,19.80
2018-12-26T20:32:06.201Z,19.80
2018-12-26T20:34:38.559Z,19.80
2018-12-26T20:37:10.797Z,19.80
2018-12-26T20:39:42.991Z,19.80
2018-12-26T20:42:14.500Z,19.80
2018-12-26T20:44:45.837Z,19.80
2018-12-26T20:47:17.465Z,19.80
2018-12-26T20:49:48.819Z,19.70
2018-12-26T20:52:20.654Z,19.70
2018-12-26T20:54:52.310Z,19.70
2018-12-26T20:57:23.798Z,19.70
2018-12-26T20:59:54.639Z,19.70
2018-12-26T21:02:25.906Z,19.70
2018-12-26T21:04:56.196Z,19.70
2018-12-26T21:07:27.082Z,19.70
2018-12-26T21:09:57.798Z,19.70
2018-12-26T21:12:29.333Z,19.70
2018-12-26T21:15:00.121Z,19.70
2018-12-26T21:17:32.682Z,19.70
2018-12-26T21:20:03.868Z,19.70
2018-12-26T21:22:35.055Z,19.70
2018-12-26T21:25:06.400Z,19.70
2018-12-26T21:27:37.168Z,19.60
2018-12-26T21:30:15.027Z,19.60
2018-12-26T21:32:46.384Z,19.60
2018-12-26T21:35:16.960Z,19.60
2018-12-26T21:37:48.118Z,19.60
2018-12-26T21:40:18.665Z,19.60
2018-12-26T21:42:49.517Z,19.60
2018-12-26T21:45:19.973Z,19.60
2018-12-26T21:47:50.907Z,19.60
2018-12-26T21:50:21.453Z,19.60
2018-12-26T21:52:52.515Z,19.60
2018-12-26T21:55:24.031Z,19.60
2018-12-26T21:57:56.263Z,19.60
2018-12-26T22:00:27.626Z,19.60
2018-12-26T22:02:59.295Z,19.60
2018-12-26T22:05:32.339Z,19.60
2018-12-26T22:08:03.752Z,19.60
2018-12-26T22:10:34.758Z,19.50
2018-12-26T22:13:06.107Z,19.50
2018-12-26T22:15:37.745Z,19.50
2018-12-26T22:18:09.012Z,19.50
2018-12-26T22:20:40.456Z,19.50
2018-12-26T22:23:12.886Z,19.50
2018-12-26T22:25:43.927Z,19.50
2018-12-26T22:28:14.965Z,19.50
2018-12-26T22:30:46.261Z,19.50
2018-12-26T22:33:17.713Z,19.50
2018-12-26T22:35:49.173Z,19.50
2018-12-26T22:38:20.301Z,19.50
2018-12-26T22:40:51.233Z,19.40
2018-12-26T22:43:21.595Z,19.40
2018-12-26T22:45:52.504Z,19.40
2018-12-26T22:48:23.027Z,19.40
2018-12-26T22:50:54.193Z,19.40
2018-12-26T22:53:25.336Z,19.40
2018-12-26T22:55:56.390Z,19.40
2018-12-26T22:58:27.660Z,19.40
2018-12-26T23:00:59.522Z,19.40
2018-12-26T23:03:31.465Z,19.40
2018-12-26T23:06:02.618Z,19.40
2018-12-26T23:08:33.735Z,19.40
2018-12-26T23:11:04.877Z,19.40
2018-12-26T23:13:36.028Z,19.40
2018-12-26T23:16:07.262Z,19.40
2018-12-26T23:18:38.003Z,19.40
2018-12-26T23:21:09.434Z,19.30
2018-12-26T23:23:40.644Z,19.30
2018-12-26T23:26:13.930Z,19.30
2018-12-26T23:28:45.331Z,19.30
2018-12-26T23:31:16.639Z,19.30
2018-12-26T23:33:47.968Z,19.30
2018-12-26T23:36:19.675Z,19.30
2018-12-26T23:38:51.143Z,19.30
2018-12-26T23:41:21.933Z,19.30
2018-12-26T23:43:53.127Z,19.30
2018-12-26T23:46:24.261Z,19.30
2018-12-26T23:48:55.475Z,19.30
2018-12-26T23:51:26.818Z,19.30
2018-12-26T23:53:57.721Z,19.30
2018-12-26T23:56:29.134Z,19.30
2018-12-26T23:59:00.225Z,19.30
